Time;durP1;ratioP1;P1;durP2;ratioP2;P2;SDS_P1;SDS_P2;PMS_P1;PMS_P2;Temp;Humidity;BMP_temperature;BMP_pressure;BME280_temperature;BME280_humidity;BME280_pressure;Samples;Min_cycle;Max_cycle;Signal;HPM_P1;HPM_P2
2022/05/16 00:01:02;;;;;;;;;;;;;;;6.98;69.41;100941.48;83623;1345;22589;-72
2022/05/16 00:03:09;;;;;;;;;;;;;;;6.97;69.44;100941.35;83641;1347;22588;-72
2022/05/16 00:05:15;;;;;;;;;;;;;;;6.95;69.72;100947.27;83601;1344;25301;-72
2022/05/16 00:07:21;;;;;;;;;;;;;;;6.96;69.73;100945.52;83568;1345;24359;-72
2022/05/16 00:09:27;;;;;;;;;;;;;;;6.97;69.87;100945.83;83626;1345;25437;-72
2022/05/16 00:11:33;;;;;;;;;;;;;;;6.98;69.86;100945.29;83613;1344;22600;-73
2022/05/16 00:13:39;;;;;;;;;;;;;;;7.00;69.81;100944.95;83659;1346;22671;-73
2022/05/16 00:15:45;;;;;;;;;;;;;;;7.00;69.90;100945.64;83570;1345;23091;-72
2022/05/16 00:17:51;;;;;;;;;;;;;;;7.00;69.79;100946.69;83556;1346;22580;-72
2022/05/16 00:19:57;;;;;;;;;;;;;;;6.99;70.10;100948.58;83624;1344;22630;-72
2022/05/16 00:22:03;;;;;;;;;;;;;;;6.96;70.07;100954.02;83612;1345;22646;-72
2022/05/16 00:24:09;;;;;;;;;;;;;;;6.94;70.14;100955.77;83606;1344;25334;-72
2022/05/16 00:26:15;;;;;;;;;;;;;;;6.92;70.18;100955.12;83527;1346;25433;-72
2022/05/16 00:28:21;;;;;;;;;;;;;;;6.88;70.18;100962.96;83645;1344;22593;-72
2022/05/16 00:30:27;;;;;;;;;;;;;;;6.83;70.20;100959.23;83647;1347;22625;-72
2022/05/16 00:32:33;;;;;;;;;;;;;;;6.76;70.35;100960.18;83614;1345;25571;-72
2022/05/16 00:34:39;;;;;;;;;;;;;;;6.70;70.36;100961.64;83613;1344;25368;-72
2022/05/16 00:36:47;;;;;;;;;;;;;;;6.64;70.69;100961.55;83635;1344;25271;-73
2022/05/16 00:38:54;;;;;;;;;;;;;;;6.59;70.71;100965.41;83555;1346;24477;-73
2022/05/16 00:41:01;;;;;;;;;;;;;;;6.55;70.93;100966.33;83591;1342;23046;-73
2022/05/16 00:43:08;;;;;;;;;;;;;;;6.50;70.87;100969.67;83560;1347;26589;-73
2022/05/16 00:45:16;;;;;;;;;;;;;;;6.46;71.17;100973.89;83550;1346;22589;-73
2022/05/16 00:47:22;;;;;;;;;;;;;;;6.43;71.11;100973.75;83524;1344;22596;-73
2022/05/16 00:49:29;;;;;;;;;;;;;;;6.40;71.20;100971.89;83450;1344;22596;-73
2022/05/16 00:51:37;;;;;;;;;;;;;;;6.37;71.49;100975.02;83517;1344;22733;-73
2022/05/16 00:53:43;;;;;;;;;;;;;;;6.34;71.72;100974.36;83572;1345;22621;-73
2022/05/16 00:55:49;;;;;;;;;;;;;;;6.30;71.82;100976.84;83563;1347;24427;-73
2022/05/16 00:57:56;;;;;;;;;;;;;;;6.26;71.70;100979.84;83525;1346;22664;-73
2022/05/16 01:00:05;;;;;;;;;;;;;;;6.23;71.97;100977.95;83554;1347;22593;-72
2022/05/16 01:04:50;;;;;;;;;;;;;;;6.14;72.16;100973.89;83530;1344;22596;-72
2022/05/16 01:06:56;;;;;;;;;;;;;;;6.10;72.16;100979.31;83491;1346;22589;-72
2022/05/16 01:09:02;;;;;;;;;;;;;;;6.05;72.44;100975.53;83560;1341;22612;-72
2022/05/16 01:11:09;;;;;;;;;;;;;;;6.01;72.40;100973.33;83562;1346;22585;-71
2022/05/16 01:13:16;;;;;;;;;;;;;;;5.96;72.60;100977.52;83528;1346;22682;-72
2022/05/16 01:15:31;;;;;;;;;;;;;;;5.93;72.62;100980.67;83559;1347;22722;-72
2022/05/16 01:17:37;;;;;;;;;;;;;;;5.91;72.82;100983.09;83589;1346;22612;-72
2022/05/16 01:19:43;;;;;;;;;;;;;;;5.88;72.99;100982.61;83520;1347;25466;-72
2022/05/16 01:21:49;;;;;;;;;;;;;;;5.82;72.98;100982.81;83586;1346;22969;-72
2022/05/16 01:23:56;;;;;;;;;;;;;;;5.76;72.97;100985.47;83548;1347;25394;-72
2022/05/16 01:26:02;;;;;;;;;;;;;;;5.73;73.00;100984.81;83553;1346;22604;-72
2022/05/16 01:28:08;;;;;;;;;;;;;;;5.71;73.29;100984.80;83536;1347;22653;-73
2022/05/16 01:30:15;;;;;;;;;;;;;;;5.67;73.22;100985.38;83569;1346;22626;-73
2022/05/16 01:32:21;;;;;;;;;;;;;;;5.64;73.46;100986.59;83554;1347;25273;-73
2022/05/16 01:34:27;;;;;;;;;;;;;;;5.60;73.52;100986.64;83507;1346;25345;-73
2022/05/16 01:36:33;;;;;;;;;;;;;;;5.56;73.77;100990.13;83535;1346;22589;-72
2022/05/16 01:38:39;;;;;;;;;;;;;;;5.54;73.90;100992.22;83596;1344;22718;-72
2022/05/16 01:40:45;;;;;;;;;;;;;;;5.50;73.83;100991.55;83597;1344;22591;-72
2022/05/16 01:42:51;;;;;;;;;;;;;;;5.48;74.06;100993.66;83563;1346;24936;-72
2022/05/16 01:44:57;;;;;;;;;;;;;;;5.45;73.95;100993.14;83593;1343;22614;-72
2022/05/16 01:47:03;;;;;;;;;;;;;;;5.40;74.03;100993.02;83618;1344;22587;-72
2022/05/16 01:49:10;;;;;;;;;;;;;;;5.36;74.18;100993.90;83644;1346;24374;-73
2022/05/16 01:51:16;;;;;;;;;;;;;;;5.33;74.37;100991.69;83619;1344;22587;-73
2022/05/16 01:53:22;;;;;;;;;;;;;;;5.29;74.33;100990.83;83637;1345;22619;-72
2022/05/16 01:55:28;;;;;;;;;;;;;;;5.26;74.46;100992.58;83639;1344;22622;-72
2022/05/16 01:57:34;;;;;;;;;;;;;;;5.23;74.66;100990.36;83608;1346;22575;-72
2022/05/16 01:59:40;;;;;;;;;;;;;;;5.20;74.81;100988.98;83597;1344;25392;-72
2022/05/16 02:01:46;;;;;;;;;;;;;;;5.17;75.03;100990.22;83593;1346;25480;-73
2022/05/16 02:03:52;;;;;;;;;;;;;;;5.16;74.92;100992.64;83613;1342;22874;-73
2022/05/16 02:05:58;;;;;;;;;;;;;;;5.15;75.02;101000.42;83604;1345;22581;-73
2022/05/16 02:08:04;;;;;;;;;;;;;;;5.16;75.21;101001.61;83579;1346;23256;-73
2022/05/16 02:10:12;;;;;;;;;;;;;;;5.18;75.25;101000.59;83632;1344;22585;-73
2022/05/16 02:12:18;;;;;;;;;;;;;;;5.23;75.46;101004.54;83623;1347;22609;-72
2022/05/16 02:14:25;;;;;;;;;;;;;;;5.29;75.91;101007.95;83635;1344;22665;-73
2022/05/16 02:16:31;;;;;;;;;;;;;;;5.34;76.01;101006.55;83644;1347;25377;-73
2022/05/16 02:18:37;;;;;;;;;;;;;;;5.41;76.20;101009.10;83588;1347;22695;-72
2022/05/16 02:20:43;;;;;;;;;;;;;;;5.49;76.59;101014.40;83636;1344;22610;-72
2022/05/16 02:25:13;;;;;;;;;;;;;;;5.64;76.54;101011.88;83607;1344;22776;-73
2022/05/16 02:27:19;;;;;;;;;;;;;;;5.68;76.68;101008.90;83617;1345;24256;-73
2022/05/16 02:29:25;;;;;;;;;;;;;;;5.73;76.79;101014.23;83612;1344;22602;-73
2022/05/16 02:31:31;;;;;;;;;;;;;;;5.77;76.87;101015.75;83591;1342;22620;-73
2022/05/16 02:33:37;;;;;;;;;;;;;;;5.80;76.71;101015.21;83622;1344;22638;-73
2022/05/16 02:35:43;;;;;;;;;;;;;;;5.82;76.85;101016.07;83636;1343;22708;-73
2022/05/16 02:37:49;;;;;;;;;;;;;;;5.83;76.82;101016.75;83620;1344;25561;-73
2022/05/16 02:39:56;;;;;;;;;;;;;;;5.84;76.71;101015.68;83599;1341;22611;-73
2022/05/16 02:42:02;;;;;;;;;;;;;;;5.85;76.75;101022.09;83626;1344;22697;-72
2022/05/16 02:44:08;;;;;;;;;;;;;;;5.85;76.67;101021.05;83625;1345;22584;-72
2022/05/16 02:46:14;;;;;;;;;;;;;;;5.84;76.48;101021.92;83620;1349;22609;-72
2022/05/16 02:48:20;;;;;;;;;;;;;;;5.84;76.84;101024.18;83613;1344;24423;-73
2022/05/16 02:50:26;;;;;;;;;;;;;;;5.83;76.47;101026.09;83615;1345;22632;-73
2022/05/16 02:52:32;;;;;;;;;;;;;;;5.83;76.86;101024.89;83570;1346;22596;-72
2022/05/16 02:54:39;;;;;;;;;;;;;;;5.84;76.80;101026.08;83614;1344;22596;-72
2022/05/16 02:56:45;;;;;;;;;;;;;;;5.84;76.60;101024.35;83576;1345;22693;-72
2022/05/16 02:58:51;;;;;;;;;;;;;;;5.83;76.83;101022.10;83622;1347;24321;-72
2022/05/16 03:00:57;;;;;;;;;;;;;;;5.84;76.71;101023.31;83625;1344;22613;-72
2022/05/16 03:03:03;;;;;;;;;;;;;;;5.85;76.89;101023.82;83627;1346;22585;-72
2022/05/16 03:05:11;;;;;;;;;;;;;;;5.87;76.73;101025.37;83618;1344;24261;-72
2022/05/16 03:07:17;;;;;;;;;;;;;;;5.90;76.70;101021.89;83661;1347;22586;-72
2022/05/16 03:09:23;;;;;;;;;;;;;;;5.94;76.81;101025.17;83643;1344;22612;-73
2022/05/16 03:11:29;;;;;;;;;;;;;;;5.99;76.82;101021.33;83614;1344;23061;-72
2022/05/16 03:13:36;;;;;;;;;;;;;;;6.06;76.92;101020.22;83621;1344;23075;-73
2022/05/16 03:15:41;;;;;;;;;;;;;;;6.14;76.82;101020.83;83623;1345;25390;-73
2022/05/16 03:17:47;;;;;;;;;;;;;;;6.21;76.86;101020.95;83553;1346;25610;-73
2022/05/16 03:19:53;;;;;;;;;;;;;;;6.26;76.71;101020.54;83601;1345;22574;-73
2022/05/16 03:21:59;;;;;;;;;;;;;;;6.32;76.73;101023.27;83596;1347;25481;-73
2022/05/16 03:24:08;;;;;;;;;;;;;;;6.35;76.61;101026.17;83585;1344;26470;-73
2022/05/16 03:26:14;;;;;;;;;;;;;;;6.38;76.67;101025.79;83607;1344;22679;-72
2022/05/16 03:28:20;;;;;;;;;;;;;;;6.43;76.54;101029.03;83601;1344;22611;-73
2022/05/16 03:30:26;;;;;;;;;;;;;;;6.47;76.54;101029.87;83615;1342;22742;-73
2022/05/16 03:32:32;;;;;;;;;;;;;;;6.51;76.57;101029.83;83600;1345;22610;-73
2022/05/16 03:34:38;;;;;;;;;;;;;;;6.55;76.39;101030.64;83609;1344;22618;-73
2022/05/16 03:36:44;;;;;;;;;;;;;;;6.60;76.48;101032.15;83594;1346;22625;-73
2022/05/16 03:41:13;;;;;;;;;;;;;;;6.80;76.48;101028.27;83532;1346;22595;-71
2022/05/16 03:43:19;;;;;;;;;;;;;;;6.92;76.30;101025.19;83582;1344;22659;-73
2022/05/16 03:45:26;;;;;;;;;;;;;;;7.08;76.38;101023.92;83585;1344;22603;-73
2022/05/16 03:47:32;;;;;;;;;;;;;;;7.29;76.06;101027.48;83640;1346;22588;-73
2022/05/16 03:49:38;;;;;;;;;;;;;;;7.62;76.42;101021.94;83636;1344;22644;-73
2022/05/16 03:51:44;;;;;;;;;;;;;;;7.94;75.92;101023.16;83542;1346;22622;-73
2022/05/16 03:53:50;;;;;;;;;;;;;;;8.18;75.63;101023.98;83573;1346;22609;-73
2022/05/16 03:55:56;;;;;;;;;;;;;;;8.47;75.43;101026.94;83573;1346;25382;-73
2022/05/16 03:58:02;;;;;;;;;;;;;;;8.77;75.13;101027.94;83528;1346;22611;-73
2022/05/16 04:00:12;;;;;;;;;;;;;;;9.00;74.34;101027.80;83565;1346;25571;-73
2022/05/16 04:02:18;;;;;;;;;;;;;;;9.16;73.71;101028.52;83605;1342;24404;-73
2022/05/16 04:04:24;;;;;;;;;;;;;;;9.27;72.79;101029.14;83575;1346;22698;-73
2022/05/16 04:06:34;;;;;;;;;;;;;;;9.40;72.64;101030.42;83604;1344;22627;-73
2022/05/16 04:08:40;;;;;;;;;;;;;;;9.65;74.07;101034.38;83581;1346;25481;-73
2022/05/16 04:10:46;;;;;;;;;;;;;;;9.97;72.45;101032.03;83627;1345;22727;-73
2022/05/16 04:12:52;;;;;;;;;;;;;;;10.11;71.97;101034.83;83642;1347;22724;-73
2022/05/16 04:14:58;;;;;;;;;;;;;;;10.34;71.21;101037.41;83628;1344;22600;-74
2022/05/16 04:17:04;;;;;;;;;;;;;;;10.51;70.30;101040.25;83616;1346;22605;-73
2022/05/16 04:19:10;;;;;;;;;;;;;;;10.64;70.11;101043.04;83512;1342;194490;-73
2022/05/16 04:21:16;;;;;;;;;;;;;;;10.79;69.57;101044.02;83616;1348;22625;-73
2022/05/16 04:23:22;;;;;;;;;;;;;;;10.86;68.83;101042.95;83583;1345;25265;-73
2022/05/16 04:25:29;;;;;;;;;;;;;;;10.91;68.29;101045.42;83643;1344;22619;-73
2022/05/16 04:27:35;;;;;;;;;;;;;;;10.98;67.84;101045.20;83622;1346;22670;-73
2022/05/16 04:29:41;;;;;;;;;;;;;;;11.05;67.49;101043.79;83613;1345;23856;-73
2022/05/16 04:31:50;;;;;;;;;;;;;;;11.11;66.85;101043.42;83566;1344;25466;-73
2022/05/16 04:33:56;;;;;;;;;;;;;;;11.17;66.47;101045.19;83612;1345;25551;-73
2022/05/16 04:36:02;;;;;;;;;;;;;;;11.24;66.45;101045.65;83590;1342;22710;-73
2022/05/16 04:38:08;;;;;;;;;;;;;;;11.33;65.96;101048.90;83567;1345;22613;-73
2022/05/16 04:40:15;;;;;;;;;;;;;;;11.41;65.35;101050.59;83620;1345;22593;-73
2022/05/16 04:44:45;;;;;;;;;;;;;;;12.16;65.19;101045.02;83631;1345;25479;-73
2022/05/16 04:46:51;;;;;;;;;;;;;;;13.08;64.78;101042.27;83642;1347;25552;-74
2022/05/16 04:48:59;;;;;;;;;;;;;;;14.18;62.92;101042.31;83626;1344;26726;-73
2022/05/16 04:51:05;;;;;;;;;;;;;;;15.30;60.64;101040.13;83629;1344;24346;-73
2022/05/16 04:53:11;;;;;;;;;;;;;;;16.45;58.19;101039.76;83639;1344;22634;-73
2022/05/16 04:55:18;;;;;;;;;;;;;;;17.48;53.80;101034.40;83639;1342;22600;-72
2022/05/16 04:57:24;;;;;;;;;;;;;;;18.28;51.49;101036.16;83624;1347;22638;-73
2022/05/16 04:59:30;;;;;;;;;;;;;;;19.11;49.07;101029.99;83604;1346;25626;-73
2022/05/16 05:01:36;;;;;;;;;;;;;;;19.92;46.32;101026.54;83614;1346;22601;-73
2022/05/16 05:03:42;;;;;;;;;;;;;;;20.61;44.60;101022.21;83589;1347;22600;-73
2022/05/16 05:05:48;;;;;;;;;;;;;;;21.19;42.49;101021.65;83585;1344;25360;-73
2022/05/16 05:07:54;;;;;;;;;;;;;;;21.61;40.68;101021.11;83607;1345;22586;-73
2022/05/16 05:14:48;;;;;;;;;;;;;;;23.04;37.48;101027.02;83582;1345;25466;-72
2022/05/16 05:16:54;;;;;;;;;;;;;;;23.51;35.99;101030.59;83598;1346;24245;-71
2022/05/16 05:19:00;;;;;;;;;;;;;;;23.95;35.19;101029.98;83617;1342;22697;-73
2022/05/16 05:21:07;;;;;;;;;;;;;;;24.45;34.53;101029.62;83609;1345;22652;-73
2022/05/16 05:23:12;;;;;;;;;;;;;;;24.99;33.67;101025.48;83594;1344;22578;-73
2022/05/16 05:25:20;;;;;;;;;;;;;;;25.33;32.78;101028.69;83620;1345;25465;-73
2022/05/16 05:27:26;;;;;;;;;;;;;;;25.43;31.58;101024.23;83597;1344;25595;-73
2022/05/16 05:29:32;;;;;;;;;;;;;;;25.34;31.00;101030.38;83605;1344;22620;-73
2022/05/16 05:31:39;;;;;;;;;;;;;;;25.36;31.03;101028.42;83597;1344;22592;-73
2022/05/16 05:33:45;;;;;;;;;;;;;;;25.45;30.26;101025.67;83600;1344;22657;-73
2022/05/16 05:35:51;;;;;;;;;;;;;;;25.44;30.10;101023.80;83591;1346;24760;-73
2022/05/16 05:37:57;;;;;;;;;;;;;;;25.51;29.95;101022.10;83516;1347;26534;-73
2022/05/16 05:40:04;;;;;;;;;;;;;;;25.63;29.98;101017.09;83497;1348;25452;-73
2022/05/16 05:42:10;;;;;;;;;;;;;;;26.04;29.26;101018.83;83539;1344;22871;-73
2022/05/16 05:44:17;;;;;;;;;;;;;;;26.38;28.27;101014.92;83541;1347;24322;-72
2022/05/16 05:46:23;;;;;;;;;;;;;;;26.65;28.18;101018.80;83518;1347;22674;-72
2022/05/16 05:48:28;;;;;;;;;;;;;;;27.09;27.66;101017.31;83573;1344;22606;-74
2022/05/16 05:50:34;;;;;;;;;;;;;;;27.36;27.29;101021.44;83620;1347;22637;-72
2022/05/16 05:52:40;;;;;;;;;;;;;;;27.64;26.68;101026.06;83581;1344;22615;-72
2022/05/16 05:54:47;;;;;;;;;;;;;;;27.81;26.25;101021.34;83600;1346;22686;-73
2022/05/16 05:56:53;;;;;;;;;;;;;;;28.06;25.33;101020.95;83626;1344;23656;-72
2022/05/16 05:58:59;;;;;;;;;;;;;;;28.19;25.12;101024.04;83558;1346;24307;-72
2022/05/16 06:01:05;;;;;;;;;;;;;;;28.53;24.23;101020.43;83610;1344;24364;-72
2022/05/16 06:03:11;;;;;;;;;;;;;;;28.62;24.19;101023.29;83649;1345;22668;-73
2022/05/16 06:05:20;;;;;;;;;;;;;;;28.76;23.68;101018.34;83635;1344;22582;-73
2022/05/16 06:07:26;;;;;;;;;;;;;;;28.95;23.47;101019.09;83628;1342;24364;-73
2022/05/16 06:09:32;;;;;;;;;;;;;;;29.25;23.06;101018.10;83580;1345;24315;-73
2022/05/16 06:11:38;;;;;;;;;;;;;;;29.42;22.50;101019.50;83614;1347;25304;-71
2022/05/16 06:13:44;;;;;;;;;;;;;;;29.51;22.32;101015.45;83591;1346;22582;-72
2022/05/16 06:15:50;;;;;;;;;;;;;;;29.59;21.97;101012.08;83641;1344;22615;-73
2022/05/16 06:17:56;;;;;;;;;;;;;;;29.64;22.27;101007.40;83569;1345;25300;-71
2022/05/16 06:20:02;;;;;;;;;;;;;;;30.03;22.13;101013.61;83611;1344;22619;-72
2022/05/16 06:22:07;;;;;;;;;;;;;;;30.32;21.31;101014.65;83607;1344;22598;-73
2022/05/16 06:26:33;;;;;;;;;;;;;;;30.15;21.06;101012.25;83622;1347;22601;-71
2022/05/16 06:28:39;;;;;;;;;;;;;;;30.08;20.99;101013.31;83552;1346;22672;-72
2022/05/16 06:30:47;;;;;;;;;;;;;;;30.01;21.19;101014.82;83609;1345;22658;-72
2022/05/16 06:32:53;;;;;;;;;;;;;;;30.13;20.97;101013.31;83639;1345;22611;-72
2022/05/16 06:34:59;;;;;;;;;;;;;;;30.20;20.88;101012.41;83569;1347;22600;-72
2022/05/16 06:37:06;;;;;;;;;;;;;;;30.20;20.70;101010.43;83616;1344;22645;-73
2022/05/16 06:39:12;;;;;;;;;;;;;;;30.18;20.73;101014.61;83615;1346;22674;-73
2022/05/16 06:41:18;;;;;;;;;;;;;;;30.22;20.70;101016.19;83558;1347;22598;-73
2022/05/16 06:43:25;;;;;;;;;;;;;;;30.55;20.67;101014.08;83559;1346;22663;-73
2022/05/16 06:45:31;;;;;;;;;;;;;;;30.84;20.41;101012.80;83552;1343;22603;-72
2022/05/16 06:47:37;;;;;;;;;;;;;;;31.07;19.99;101017.14;83622;1345;22596;-73
2022/05/16 06:49:43;;;;;;;;;;;;;;;31.38;19.84;101015.55;83622;1342;22643;-73
2022/05/16 06:51:49;;;;;;;;;;;;;;;31.43;19.10;101017.86;83572;1346;22621;-73
2022/05/16 06:53:55;;;;;;;;;;;;;;;31.40;18.73;101016.50;83626;1345;22667;-73
2022/05/16 06:56:04;;;;;;;;;;;;;;;31.30;19.02;101018.88;83625;1344;24488;-73
2022/05/16 06:58:10;;;;;;;;;;;;;;;31.53;19.02;101017.83;83567;1345;24332;-76
2022/05/16 07:00:18;;;;;;;;;;;;;;;31.80;18.64;101018.19;83619;1344;25314;-76
2022/05/16 07:02:24;;;;;;;;;;;;;;;31.95;18.45;101018.24;83599;1346;22621;-75
2022/05/16 07:04:30;;;;;;;;;;;;;;;32.09;18.07;101014.60;83638;1343;22590;-75
2022/05/16 07:06:36;;;;;;;;;;;;;;;32.14;17.90;101021.68;83624;1345;22734;-74
2022/05/16 07:08:42;;;;;;;;;;;;;;;32.27;17.80;101023.27;83606;1345;22716;-74
2022/05/16 07:10:48;;;;;;;;;;;;;;;32.41;17.41;101022.02;83555;1346;22612;-73
2022/05/16 07:12:54;;;;;;;;;;;;;;;32.46;16.97;101016.01;83599;1344;25355;-73
2022/05/16 07:15:00;;;;;;;;;;;;;;;32.63;16.13;101020.59;83548;1343;22585;-72
2022/05/16 07:17:07;;;;;;;;;;;;;;;32.73;16.12;101021.89;83577;1345;22627;-73
2022/05/16 07:19:13;;;;;;;;;;;;;;;32.95;16.48;101028.23;83565;1342;22615;-73
2022/05/16 07:21:19;;;;;;;;;;;;;;;33.11;16.06;101024.48;83612;1342;24398;-73
2022/05/16 07:23:26;;;;;;;;;;;;;;;33.22;15.36;101024.56;83624;1345;22625;-73
2022/05/16 07:27:56;;;;;;;;;;;;;;;33.08;15.43;101027.77;83616;1345;22753;-73
2022/05/16 07:28:00;;;;;;;;;;;;;;;32.91;15.45;101029.86;83615;1344;22608;-73
2022/05/16 07:30:07;;;;;;;;;;;;;;;33.04;15.53;101030.02;83569;1347;22609;-78
2022/05/16 07:32:14;;;;;;;;;;;;;;;32.92;15.17;101032.98;83609;1344;25504;-78
2022/05/16 07:34:20;;;;;;;;;;;;;;;32.92;15.32;101027.22;83453;1349;22601;-77
2022/05/16 07:36:26;;;;;;;;;;;;;;;32.93;15.17;101033.71;83518;1346;22616;-78
2022/05/16 07:38:32;;;;;;;;;;;;;;;32.88;15.57;101031.52;83544;1346;22592;-78
2022/05/16 07:40:39;;;;;;;;;;;;;;;32.99;14.75;101030.45;83541;1345;25401;-77
2022/05/16 07:42:45;;;;;;;;;;;;;;;32.82;15.48;101032.16;83533;1341;24270;-77
2022/05/16 07:44:51;;;;;;;;;;;;;;;32.81;15.68;101032.15;83544;1345;22596;-73
2022/05/16 07:46:56;;;;;;;;;;;;;;;32.80;14.90;101032.48;83530;1341;25665;-74
2022/05/16 07:49:02;;;;;;;;;;;;;;;32.86;15.84;101030.26;83548;1347;22778;-73
2022/05/16 07:51:09;;;;;;;;;;;;;;;33.18;15.44;101026.64;83538;1345;25572;-73
2022/05/16 07:53:15;;;;;;;;;;;;;;;33.56;14.80;101024.53;83611;1345;22594;-74
2022/05/16 07:55:22;;;;;;;;;;;;;;;33.66;13.96;101031.02;83598;1341;25530;-74
2022/05/16 07:57:28;;;;;;;;;;;;;;;33.39;13.87;101023.18;83533;1346;22677;-76
2022/05/16 07:59:35;;;;;;;;;;;;;;;33.49;13.77;101025.14;83540;1346;22613;-72
2022/05/16 08:01:40;;;;;;;;;;;;;;;33.71;13.81;101027.70;83571;1346;22679;-71
2022/05/16 08:03:46;;;;;;;;;;;;;;;33.85;14.24;101026.08;83630;1344;26597;-73
2022/05/16 08:05:52;;;;;;;;;;;;;;;34.00;13.64;101026.92;83618;1344;22598;-73
2022/05/16 08:10:31;;;;;;;;;;;;;;;34.01;13.95;101027.91;83592;1345;22598;-74
2022/05/16 08:12:38;;;;;;;;;;;;;;;34.10;13.61;101028.79;83578;1346;22621;-75
2022/05/16 08:14:44;;;;;;;;;;;;;;;33.87;13.82;101026.39;83577;1346;24385;-73
2022/05/16 08:16:50;;;;;;;;;;;;;;;33.71;13.57;101023.17;83544;1344;24519;-73
2022/05/16 08:18:56;;;;;;;;;;;;;;;33.82;13.79;101025.41;83644;1346;24438;-73
2022/05/16 08:21:02;;;;;;;;;;;;;;;33.75;13.58;101027.19;83581;1342;22609;-76
2022/05/16 08:23:08;;;;;;;;;;;;;;;33.50;13.81;101025.48;83630;1344;22614;-75
2022/05/16 08:25:14;;;;;;;;;;;;;;;33.35;13.80;101020.41;83596;1342;22807;-76
2022/05/16 08:27:21;;;;;;;;;;;;;;;33.34;14.32;101023.98;83601;1344;22724;-76
2022/05/16 08:29:27;;;;;;;;;;;;;;;33.23;13.51;101022.77;83632;1347;22722;-76
2022/05/16 08:31:39;;;;;;;;;;;;;;;33.23;14.07;101022.81;83604;1345;22615;-76
2022/05/16 08:33:45;;;;;;;;;;;;;;;33.36;13.27;101025.92;83598;1344;22576;-78
2022/05/16 08:40:39;;;;;;;;;;;;;;;33.30;14.28;101031.45;83594;1345;22599;-74
2022/05/16 08:42:51;;;;;;;;;;;;;;;33.45;13.75;101028.44;83544;1346;22594;-73
2022/05/16 08:45:00;;;;;;;;;;;;;;;33.56;14.08;101028.71;83539;1346;22614;-73
2022/05/16 08:47:34;;;;;;;;;;;;;;;33.51;13.78;101028.38;83569;1342;22620;-74
2022/05/16 08:49:41;;;;;;;;;;;;;;;33.21;13.59;101029.42;83508;1346;24519;-73
2022/05/16 08:51:49;;;;;;;;;;;;;;;33.05;13.28;101027.57;83553;1346;22714;-73
2022/05/16 08:53:59;;;;;;;;;;;;;;;32.92;13.39;101028.27;83620;1344;22613;-73
2022/05/16 08:56:08;;;;;;;;;;;;;;;32.92;13.85;101027.39;83570;1345;22662;-74
2022/05/16 08:58:20;;;;;;;;;;;;;;;33.00;13.86;101022.61;83535;1346;22595;-73
2022/05/16 09:00:34;;;;;;;;;;;;;;;33.07;13.98;101016.52;83578;1341;22595;-74
2022/05/16 09:02:42;;;;;;;;;;;;;;;33.16;14.36;101018.44;83572;1346;22632;-74
2022/05/16 09:04:51;;;;;;;;;;;;;;;33.16;13.88;101023.93;83602;1345;22630;-74
2022/05/16 09:07:02;;;;;;;;;;;;;;;33.00;13.18;101024.81;83579;1344;26037;-73
2022/05/16 09:09:11;;;;;;;;;;;;;;;32.76;12.71;101023.20;83532;1346;22578;-73
2022/05/16 09:11:19;;;;;;;;;;;;;;;32.49;13.51;101021.23;83550;1345;22650;-73
2022/05/16 09:13:35;;;;;;;;;;;;;;;32.44;13.82;101023.09;83580;1344;22623;-73
2022/05/16 09:15:44;;;;;;;;;;;;;;;32.10;13.73;101021.20;83570;1344;22577;-72
2022/05/16 09:18:02;;;;;;;;;;;;;;;31.65;14.25;101020.18;83534;1344;22610;-73
2022/05/16 09:20:14;;;;;;;;;;;;;;;31.28;14.76;101022.41;83506;1346;22602;-72
2022/05/16 09:22:33;;;;;;;;;;;;;;;30.80;14.64;101025.67;83564;1342;22629;-73
2022/05/16 09:24:42;;;;;;;;;;;;;;;30.35;15.01;101021.77;83532;1345;22920;-73
2022/05/16 09:26:55;;;;;;;;;;;;;;;30.03;15.19;101025.01;83631;1344;24526;-73
2022/05/16 09:29:04;;;;;;;;;;;;;;;29.66;15.20;101021.17;83604;1344;24273;-72
2022/05/16 09:31:14;;;;;;;;;;;;;;;29.20;15.01;101022.50;83541;1346;22830;-73
2022/05/16 09:33:21;;;;;;;;;;;;;;;28.69;15.15;101025.08;83618;1341;22671;-72
2022/05/16 09:35:32;;;;;;;;;;;;;;;28.25;15.43;101025.64;83617;1344;22616;-72
2022/05/16 09:37:38;;;;;;;;;;;;;;;27.86;15.93;101029.93;83536;1346;25318;-73
2022/05/16 09:39:44;;;;;;;;;;;;;;;27.71;16.09;101030.86;83533;1346;25361;-73
2022/05/16 09:41:57;;;;;;;;;;;;;;;27.56;15.98;101031.63;83557;1346;22612;-73
2022/05/16 09:44:10;;;;;;;;;;;;;;;27.33;16.99;101027.38;83547;1346;22590;-72
2022/05/16 09:46:25;;;;;;;;;;;;;;;27.19;17.48;101026.95;83489;1346;22678;-72
2022/05/16 09:48:31;;;;;;;;;;;;;;;27.13;17.26;101024.61;83545;1342;22606;-73
2022/05/16 09:50:37;;;;;;;;;;;;;;;27.10;16.88;101035.00;83553;1345;22676;-72
2022/05/16 09:52:46;;;;;;;;;;;;;;;26.97;17.78;101032.60;83607;1342;22738;-73
2022/05/16 09:55:02;;;;;;;;;;;;;;;26.82;17.52;101030.08;83591;1342;24317;-75
2022/05/16 09:57:16;;;;;;;;;;;;;;;26.68;17.09;101033.26;83596;1344;26580;-75
2022/05/16 09:59:34;;;;;;;;;;;;;;;26.47;16.69;101030.25;83566;1342;22583;-77
2022/05/16 10:01:44;;;;;;;;;;;;;;;26.24;16.94;101031.98;83560;1346;22593;-76
2022/05/16 10:03:51;;;;;;;;;;;;;;;26.13;17.58;101028.94;83577;1344;25362;-71
2022/05/16 10:05:57;;;;;;;;;;;;;;;26.07;17.37;101026.31;83565;1344;22630;-72
2022/05/16 10:08:11;;;;;;;;;;;;;;;25.94;17.49;101029.45;83596;1344;22595;-73
2022/05/16 10:10:19;;;;;;;;;;;;;;;25.74;17.63;101029.63;83596;1344;22627;-73
2022/05/16 10:12:26;;;;;;;;;;;;;;;25.52;17.55;101024.19;83556;1346;25317;-73
2022/05/16 10:14:32;;;;;;;;;;;;;;;25.34;17.73;101027.74;83614;1343;22595;-73
2022/05/16 10:16:40;;;;;;;;;;;;;;;25.16;18.79;101028.24;83542;1345;22598;-73
2022/05/16 10:18:48;;;;;;;;;;;;;;;25.14;18.89;101029.13;83542;1346;22635;-74
2022/05/16 10:20:58;;;;;;;;;;;;;;;25.20;17.82;101030.94;83586;1342;22665;-73
2022/05/16 10:23:07;;;;;;;;;;;;;;;25.11;17.64;101035.35;83535;1345;22631;-73
2022/05/16 10:25:18;;;;;;;;;;;;;;;25.05;17.57;101032.79;83580;1347;25481;-73
2022/05/16 10:27:28;;;;;;;;;;;;;;;25.03;18.19;101030.17;83569;1346;22618;-71
2022/05/16 10:29:35;;;;;;;;;;;;;;;24.90;18.23;101033.38;83584;1345;24301;-72
2022/05/16 10:34:09;;;;;;;;;;;;;;;24.95;18.07;101020.42;83570;1344;22600;-72
2022/05/16 10:36:23;;;;;;;;;;;;;;;24.89;18.12;101020.83;83564;1344;22587;-73
2022/05/16 10:38:33;;;;;;;;;;;;;;;24.80;18.62;101019.70;83513;1341;22600;-74
2022/05/16 10:40:42;;;;;;;;;;;;;;;24.67;18.53;101027.77;83466;1344;24492;-72
2022/05/16 10:42:50;;;;;;;;;;;;;;;24.53;18.67;101027.92;83528;1346;22615;-73
2022/05/16 10:44:59;;;;;;;;;;;;;;;24.37;18.82;101028.21;83543;1342;24572;-73
2022/05/16 10:47:12;;;;;;;;;;;;;;;24.14;18.67;101026.55;83553;1346;22599;-73
2022/05/16 10:49:20;;;;;;;;;;;;;;;23.90;18.58;101026.62;83505;1346;22606;-74
2022/05/16 10:51:31;;;;;;;;;;;;;;;23.78;18.54;101021.98;83585;1342;25510;-72
2022/05/16 10:53:39;;;;;;;;;;;;;;;23.74;19.13;101021.03;83533;1345;22618;-73
2022/05/16 10:55:48;;;;;;;;;;;;;;;23.69;18.70;101013.58;83610;1346;22594;-75
2022/05/16 10:58:09;;;;;;;;;;;;;;;23.62;18.89;101011.11;83622;1347;26878;-75
2022/05/16 11:00:18;;;;;;;;;;;;;;;23.54;18.68;101008.27;83588;1345;22616;-75
2022/05/16 11:02:30;;;;;;;;;;;;;;;23.44;18.95;101006.21;83601;1347;22578;-73
2022/05/16 11:04:59;;;;;;;;;;;;;;;23.31;19.75;101002.45;83600;1344;22597;-75
2022/05/16 11:07:11;;;;;;;;;;;;;;;23.37;20.02;101000.36;83563;1345;24234;-75
2022/05/16 11:09:19;;;;;;;;;;;;;;;23.41;20.14;100992.89;83565;1345;22604;-73
2022/05/16 11:11:29;;;;;;;;;;;;;;;23.31;19.40;100990.39;83538;1346;22589;-73
2022/05/16 11:13:40;;;;;;;;;;;;;;;23.10;19.27;100987.75;83591;1346;22614;-73
2022/05/16 11:15:51;;;;;;;;;;;;;;;23.04;19.60;100982.56;83595;1342;22573;-73
2022/05/16 11:18:02;;;;;;;;;;;;;;;23.05;19.60;100980.02;83582;1344;22606;-73
2022/05/16 11:20:10;;;;;;;;;;;;;;;22.95;19.33;100974.77;83563;1346;22650;-74
2022/05/16 11:22:18;;;;;;;;;;;;;;;22.85;19.66;100976.39;83561;1346;22757;-73
2022/05/16 11:24:32;;;;;;;;;;;;;;;22.82;20.53;100972.96;83557;1347;22645;-73